sensor_id;sensor_type;location;lat;lon;timestamp;temperature;humidity
16517;DHT22;8371;52.272;9.746;2023-10-09T00:01:00;15.70;69.30
16517;DHT22;8371;52.272;9.746;2023-10-09T00:03:27;15.70;69.40
16517;DHT22;8371;52.272;9.746;2023-10-09T00:05:53;15.80;69.40
16517;DHT22;8371;52.272;9.746;2023-10-09T00:08:21;15.70;69.40
16517;DHT22;8371;52.272;9.746;2023-10-09T00:11:03;15.80;69.50
16517;DHT22;8371;52.272;9.746;2023-10-09T00:13:48;15.80;69.40
16517;DHT22;8371;52.272;9.746;2023-10-09T00:16:21;15.80;69.40
16517;DHT22;8371;52.272;9.746;2023-10-09T00:19:02;15.80;69.40
16517;DHT22;8371;52.272;9.746;2023-10-09T00:21:47;15.80;69.40
16517;DHT22;8371;52.272;9.746;2023-10-09T00:24:13;15.80;69.50
16517;DHT22;8371;52.272;9.746;2023-10-09T00:26:45;15.80;69.40
16517;DHT22;8371;52.272;9.746;2023-10-09T00:29:12;15.90;69.60
16517;DHT22;8371;52.272;9.746;2023-10-09T00:31:46;15.90;69.60
16517;DHT22;8371;52.272;9.746;2023-10-09T00:34:13;15.90;69.70
16517;DHT22;8371;52.272;9.746;2023-10-09T00:36:41;15.80;69.70
16517;DHT22;8371;52.272;9.746;2023-10-09T00:39:08;15.80;69.70
16517;DHT22;8371;52.272;9.746;2023-10-09T00:41:36;15.80;69.80
16517;DHT22;8371;52.272;9.746;2023-10-09T00:44:02;15.80;69.80
16517;DHT22;8371;52.272;9.746;2023-10-09T00:46:29;15.80;70.00
16517;DHT22;8371;52.272;9.746;2023-10-09T00:48:59;15.90;70.10
16517;DHT22;8371;52.272;9.746;2023-10-09T00:51:27;15.90;70.10
16517;DHT22;8371;52.272;9.746;2023-10-09T00:53:57;15.90;70.10
16517;DHT22;8371;52.272;9.746;2023-10-09T00:56:24;15.90;70.20
16517;DHT22;8371;52.272;9.746;2023-10-09T00:58:58;15.90;70.20
16517;DHT22;8371;52.272;9.746;2023-10-09T01:01:27;15.90;70.20
16517;DHT22;8371;52.272;9.746;2023-10-09T01:03:55;15.90;70.20
16517;DHT22;8371;52.272;9.746;2023-10-09T01:06:22;15.90;70.30
16517;DHT22;8371;52.272;9.746;2023-10-09T01:08:49;16.00;70.30
16517;DHT22;8371;52.272;9.746;2023-10-09T01:11:33;15.90;70.30
16517;DHT22;8371;52.272;9.746;2023-10-09T01:14:00;15.90;70.30
16517;DHT22;8371;52.272;9.746;2023-10-09T01:16:37;16.00;70.40
16517;DHT22;8371;52.272;9.746;2023-10-09T01:19:03;16.00;70.50
16517;DHT22;8371;52.272;9.746;2023-10-09T01:21:31;16.00;70.70
16517;DHT22;8371;52.272;9.746;2023-10-09T01:23:57;16.00;70.70
16517;DHT22;8371;52.272;9.746;2023-10-09T01:26:36;16.00;70.60
16517;DHT22;8371;52.272;9.746;2023-10-09T01:29:08;16.00;70.60
16517;DHT22;8371;52.272;9.746;2023-10-09T01:31:38;16.00;70.60
16517;DHT22;8371;52.272;9.746;2023-10-09T01:34:06;16.10;70.70
16517;DHT22;8371;52.272;9.746;2023-10-09T01:36:33;16.10;70.70
16517;DHT22;8371;52.272;9.746;2023-10-09T01:39:00;16.10;70.70
16517;DHT22;8371;52.272;9.746;2023-10-09T01:41:31;16.10;70.80
16517;DHT22;8371;52.272;9.746;2023-10-09T01:43:58;16.10;70.80
16517;DHT22;8371;52.272;9.746;2023-10-09T01:46:26;16.20;70.80
16517;DHT22;8371;52.272;9.746;2023-10-09T01:48:52;16.20;70.80
16517;DHT22;8371;52.272;9.746;2023-10-09T01:51:19;16.20;70.80
16517;DHT22;8371;52.272;9.746;2023-10-09T01:53:45;16.20;70.80
16517;DHT22;8371;52.272;9.746;2023-10-09T01:56:13;16.20;71.00
16517;DHT22;8371;52.272;9.746;2023-10-09T01:58:42;16.20;71.00
16517;DHT22;8371;52.272;9.746;2023-10-09T02:01:10;16.20;71.00
16517;DHT22;8371;52.272;9.746;2023-10-09T02:03:36;16.20;71.10
16517;DHT22;8371;52.272;9.746;2023-10-09T02:06:03;16.20;71.00
16517;DHT22;8371;52.272;9.746;2023-10-09T02:08:30;16.20;71.10
16517;DHT22;8371;52.272;9.746;2023-10-09T02:10:58;16.20;71.20
16517;DHT22;8371;52.272;9.746;2023-10-09T02:13:23;16.20;71.20
16517;DHT22;8371;52.272;9.746;2023-10-09T02:15:57;16.20;71.30
16517;DHT22;8371;52.272;9.746;2023-10-09T02:18:40;16.10;71.30
16517;DHT22;8371;52.272;9.746;2023-10-09T02:21:08;16.10;72.10
16517;DHT22;8371;52.272;9.746;2023-10-09T02:23:36;16.10;71.50
16517;DHT22;8371;52.272;9.746;2023-10-09T02:26:08;16.10;71.60
16517;DHT22;8371;52.272;9.746;2023-10-09T02:28:35;16.10;71.70
16517;DHT22;8371;52.272;9.746;2023-10-09T02:31:10;16.10;71.80
16517;DHT22;8371;52.272;9.746;2023-10-09T02:33:36;16.10;71.80
16517;DHT22;8371;52.272;9.746;2023-10-09T02:36:05;16.10;71.90
16517;DHT22;8371;52.272;9.746;2023-10-09T02:38:32;16.10;72.00
16517;DHT22;8371;52.272;9.746;2023-10-09T02:41:05;16.00;71.90
16517;DHT22;8371;52.272;9.746;2023-10-09T02:43:35;16.10;72.30
16517;DHT22;8371;52.272;9.746;2023-10-09T02:46:11;16.00;72.10
16517;DHT22;8371;52.272;9.746;2023-10-09T02:48:41;16.00;72.20
16517;DHT22;8371;52.272;9.746;2023-10-09T02:51:19;16.00;72.20
16517;DHT22;8371;52.272;9.746;2023-10-09T02:53:57;16.00;72.30
16517;DHT22;8371;52.272;9.746;2023-10-09T02:56:24;15.90;72.50
16517;DHT22;8371;52.272;9.746;2023-10-09T02:58:52;15.90;72.60
16517;DHT22;8371;52.272;9.746;2023-10-09T03:01:18;15.90;72.80
16517;DHT22;8371;52.272;9.746;2023-10-09T03:03:44;15.90;72.90
16517;DHT22;8371;52.272;9.746;2023-10-09T03:06:15;15.90;73.10
16517;DHT22;8371;52.272;9.746;2023-10-09T03:08:42;15.90;73.10
16517;DHT22;8371;52.272;9.746;2023-10-09T03:11:08;15.90;73.30
16517;DHT22;8371;52.272;9.746;2023-10-09T03:13:36;15.90;73.30
16517;DHT22;8371;52.272;9.746;2023-10-09T03:16:01;16.00;73.40
16517;DHT22;8371;52.272;9.746;2023-10-09T03:18:29;16.00;73.50
16517;DHT22;8371;52.272;9.746;2023-10-09T03:20:55;16.00;73.50
16517;DHT22;8371;52.272;9.746;2023-10-09T03:23:21;16.00;73.60
16517;DHT22;8371;52.272;9.746;2023-10-09T03:25:47;16.00;73.60
16517;DHT22;8371;52.272;9.746;2023-10-09T03:28:14;16.00;73.70
16517;DHT22;8371;52.272;9.746;2023-10-09T03:30:40;16.00;73.80
16517;DHT22;8371;52.272;9.746;2023-10-09T03:33:09;16.00;74.00
16517;DHT22;8371;52.272;9.746;2023-10-09T03:35:34;16.00;73.90
16517;DHT22;8371;52.272;9.746;2023-10-09T03:38:01;16.00;74.00
16517;DHT22;8371;52.272;9.746;2023-10-09T03:40:29;16.10;74.10
16517;DHT22;8371;52.272;9.746;2023-10-09T03:42:57;16.10;74.20
16517;DHT22;8371;52.272;9.746;2023-10-09T03:45:23;16.10;74.30
16517;DHT22;8371;52.272;9.746;2023-10-09T03:47:53;16.00;74.40
16517;DHT22;8371;52.272;9.746;2023-10-09T03:50:20;16.10;74.70
16517;DHT22;8371;52.272;9.746;2023-10-09T03:52:48;16.10;74.70
16517;DHT22;8371;52.272;9.746;2023-10-09T03:55:15;16.10;74.80
16517;DHT22;8371;52.272;9.746;2023-10-09T03:57:41;16.20;75.10
16517;DHT22;8371;52.272;9.746;2023-10-09T04:00:10;16.20;75.00
16517;DHT22;8371;52.272;9.746;2023-10-09T04:02:38;16.20;75.10
16517;DHT22;8371;52.272;9.746;2023-10-09T04:05:04;16.20;75.20
16517;DHT22;8371;52.272;9.746;2023-10-09T04:07:31;16.30;76.10
16517;DHT22;8371;52.272;9.746;2023-10-09T04:09:59;16.30;75.50
16517;DHT22;8371;52.272;9.746;2023-10-09T04:12:30;16.30;75.70
16517;DHT22;8371;52.272;9.746;2023-10-09T04:14:56;16.40;75.80
16517;DHT22;8371;52.272;9.746;2023-10-09T04:17:27;16.40;75.80
16517;DHT22;8371;52.272;9.746;2023-10-09T04:19:58;16.40;75.90
16517;DHT22;8371;52.272;9.746;2023-10-09T04:22:43;16.50;76.00
16517;DHT22;8371;52.272;9.746;2023-10-09T04:25:20;16.50;75.90
16517;DHT22;8371;52.272;9.746;2023-10-09T04:27:53;16.50;75.90
16517;DHT22;8371;52.272;9.746;2023-10-09T04:30:21;16.60;76.10
16517;DHT22;8371;52.272;9.746;2023-10-09T04:32:48;16.60;76.20
16517;DHT22;8371;52.272;9.746;2023-10-09T04:35:15;16.70;76.30
16517;DHT22;8371;52.272;9.746;2023-10-09T04:37:48;16.70;76.40
16517;DHT22;8371;52.272;9.746;2023-10-09T04:40:21;16.80;76.50
16517;DHT22;8371;52.272;9.746;2023-10-09T04:43:05;16.80;77.30
16517;DHT22;8371;52.272;9.746;2023-10-09T04:45:36;16.80;76.30
16517;DHT22;8371;52.272;9.746;2023-10-09T04:48:21;16.90;76.60
16517;DHT22;8371;52.272;9.746;2023-10-09T04:51:00;16.90;76.50
16517;DHT22;8371;52.272;9.746;2023-10-09T04:53:44;16.90;76.50
16517;DHT22;8371;52.272;9.746;2023-10-09T04:56:12;16.90;76.50
16517;DHT22;8371;52.272;9.746;2023-10-09T04:58:39;17.00;76.60
16517;DHT22;8371;52.272;9.746;2023-10-09T05:01:05;17.00;76.70
16517;DHT22;8371;52.272;9.746;2023-10-09T05:03:33;17.00;76.80
16517;DHT22;8371;52.272;9.746;2023-10-09T05:06:06;17.00;76.80
16517;DHT22;8371;52.272;9.746;2023-10-09T05:08:49;17.00;76.70
16517;DHT22;8371;52.272;9.746;2023-10-09T05:11:15;17.00;76.90
16517;DHT22;8371;52.272;9.746;2023-10-09T05:13:43;17.00;76.80
16517;DHT22;8371;52.272;9.746;2023-10-09T05:16:16;17.00;76.70
16517;DHT22;8371;52.272;9.746;2023-10-09T05:18:49;17.00;76.90
16517;DHT22;8371;52.272;9.746;2023-10-09T05:21:36;17.00;76.80
16517;DHT22;8371;52.272;9.746;2023-10-09T05:24:11;17.00;76.90
16517;DHT22;8371;52.272;9.746;2023-10-09T05:26:41;17.00;76.80
16517;DHT22;8371;52.272;9.746;2023-10-09T05:29:21;17.00;76.90
16517;DHT22;8371;52.272;9.746;2023-10-09T05:32:02;17.00;76.90
16517;DHT22;8371;52.272;9.746;2023-10-09T05:34:33;17.00;76.90
16517;DHT22;8371;52.272;9.746;2023-10-09T05:37:04;17.00;77.10
16517;DHT22;8371;52.272;9.746;2023-10-09T05:39:34;17.00;77.20
16517;DHT22;8371;52.272;9.746;2023-10-09T05:42:06;16.90;77.30
16517;DHT22;8371;52.272;9.746;2023-10-09T05:44:37;17.00;77.50
16517;DHT22;8371;52.272;9.746;2023-10-09T05:47:21;17.00;77.50
16517;DHT22;8371;52.272;9.746;2023-10-09T05:49:59;17.00;77.60
16517;DHT22;8371;52.272;9.746;2023-10-09T05:52:27;17.00;77.70
16517;DHT22;8371;52.272;9.746;2023-10-09T05:55:07;17.00;77.80
16517;DHT22;8371;52.272;9.746;2023-10-09T05:57:46;17.00;77.90
16517;DHT22;8371;52.272;9.746;2023-10-09T06:00:19;17.00;77.90
16517;DHT22;8371;52.272;9.746;2023-10-09T06:03:04;17.00;77.90
16517;DHT22;8371;52.272;9.746;2023-10-09T06:05:48;17.00;78.00
16517;DHT22;8371;52.272;9.746;2023-10-09T06:08:19;17.10;78.10
16517;DHT22;8371;52.272;9.746;2023-10-09T06:11:04;17.10;78.10
16517;DHT22;8371;52.272;9.746;2023-10-09T06:13:34;17.20;78.20
16517;DHT22;8371;52.272;9.746;2023-10-09T06:16:06;17.10;78.20
16517;DHT22;8371;52.272;9.746;2023-10-09T06:18:36;17.20;78.30
16517;DHT22;8371;52.272;9.746;2023-10-09T06:21:04;17.20;78.40
16517;DHT22;8371;52.272;9.746;2023-10-09T06:23:38;17.20;78.40
16517;DHT22;8371;52.272;9.746;2023-10-09T06:26:22;17.20;78.30
16517;DHT22;8371;52.272;9.746;2023-10-09T06:28:51;17.20;78.50
16517;DHT22;8371;52.272;9.746;2023-10-09T06:31:36;17.30;78.50
16517;DHT22;8371;52.272;9.746;2023-10-09T06:34:21;17.30;78.50
16517;DHT22;8371;52.272;9.746;2023-10-09T06:36:48;17.30;78.50
16517;DHT22;8371;52.272;9.746;2023-10-09T06:39:16;17.30;79.40
16517;DHT22;8371;52.272;9.746;2023-10-09T06:42:00;17.30;78.60
16517;DHT22;8371;52.272;9.746;2023-10-09T06:44:28;17.30;79.50
16517;DHT22;8371;52.272;9.746;2023-10-09T06:47:12;17.30;78.80
16517;DHT22;8371;52.272;9.746;2023-10-09T06:49:38;17.40;78.70
16517;DHT22;8371;52.272;9.746;2023-10-09T06:52:06;17.40;78.80
16517;DHT22;8371;52.272;9.746;2023-10-09T06:54:36;17.40;78.70
16517;DHT22;8371;52.272;9.746;2023-10-09T06:57:03;17.40;78.80
16517;DHT22;8371;52.272;9.746;2023-10-09T06:59:36;17.40;78.90
16517;DHT22;8371;52.272;9.746;2023-10-09T07:02:09;17.50;78.90
16517;DHT22;8371;52.272;9.746;2023-10-09T07:04:37;17.50;78.90
16517;DHT22;8371;52.272;9.746;2023-10-09T07:07:04;17.50;79.00
16517;DHT22;8371;52.272;9.746;2023-10-09T07:09:32;17.50;78.90
16517;DHT22;8371;52.272;9.746;2023-10-09T07:12:11;17.60;79.10
16517;DHT22;8371;52.272;9.746;2023-10-09T07:14:42;17.60;79.60
16517;DHT22;8371;52.272;9.746;2023-10-09T07:17:09;17.60;79.10
16517;DHT22;8371;52.272;9.746;2023-10-09T07:19:42;17.60;79.10
16517;DHT22;8371;52.272;9.746;2023-10-09T07:22:11;17.60;79.10
16517;DHT22;8371;52.272;9.746;2023-10-09T07:24:55;17.60;79.20
16517;DHT22;8371;52.272;9.746;2023-10-09T07:27:28;17.60;79.00
16517;DHT22;8371;52.272;9.746;2023-10-09T07:30:14;17.60;79.00
16517;DHT22;8371;52.272;9.746;2023-10-09T07:35:41;17.60;78.90
16517;DHT22;8371;52.272;9.746;2023-10-09T07:38:19;17.60;78.90
16517;DHT22;8371;52.272;9.746;2023-10-09T07:40:46;17.60;78.90
16517;DHT22;8371;52.272;9.746;2023-10-09T07:43:30;17.60;78.90
16517;DHT22;8371;52.272;9.746;2023-10-09T07:46:01;17.60;78.90
16517;DHT22;8371;52.272;9.746;2023-10-09T07:48:32;17.60;79.00
16517;DHT22;8371;52.272;9.746;2023-10-09T07:51:12;17.60;79.10
16517;DHT22;8371;52.272;9.746;2023-10-09T07:53:37;17.60;79.10
16517;DHT22;8371;52.272;9.746;2023-10-09T07:56:11;17.60;79.30
16517;DHT22;8371;52.272;9.746;2023-10-09T07:58:39;17.60;79.30
16517;DHT22;8371;52.272;9.746;2023-10-09T08:01:15;17.60;80.10
16517;DHT22;8371;52.272;9.746;2023-10-09T08:03:43;17.60;79.50
16517;DHT22;8371;52.272;9.746;2023-10-09T08:06:10;17.60;79.70
16517;DHT22;8371;52.272;9.746;2023-10-09T08:08:54;17.70;79.70
16517;DHT22;8371;52.272;9.746;2023-10-09T08:11:42;17.70;79.70
16517;DHT22;8371;52.272;9.746;2023-10-09T08:14:13;17.70;79.80
16517;DHT22;8371;52.272;9.746;2023-10-09T08:16:53;17.70;80.00
16517;DHT22;8371;52.272;9.746;2023-10-09T08:19:20;17.70;80.00
16517;DHT22;8371;52.272;9.746;2023-10-09T08:21:59;17.70;79.80
16517;DHT22;8371;52.272;9.746;2023-10-09T08:24:44;17.80;80.00
16517;DHT22;8371;52.272;9.746;2023-10-09T08:27:12;17.80;79.90
16517;DHT22;8371;52.272;9.746;2023-10-09T08:30:05;17.80;80.00
16517;DHT22;8371;52.272;9.746;2023-10-09T08:32:49;17.80;80.10
16517;DHT22;8371;52.272;9.746;2023-10-09T08:35:29;17.90;80.10
16517;DHT22;8371;52.272;9.746;2023-10-09T08:38:03;17.90;80.20
16517;DHT22;8371;52.272;9.746;2023-10-09T08:40:35;17.90;80.20
16517;DHT22;8371;52.272;9.746;2023-10-09T08:43:21;18.00;80.30
16517;DHT22;8371;52.272;9.746;2023-10-09T08:45:51;18.00;80.40
16517;DHT22;8371;52.272;9.746;2023-10-09T08:48:17;18.00;80.40
16517;DHT22;8371;52.272;9.746;2023-10-09T08:50:45;18.00;80.20
16517;DHT22;8371;52.272;9.746;2023-10-09T08:53:15;18.00;80.40
16517;DHT22;8371;52.272;9.746;2023-10-09T08:55:42;18.10;80.40
16517;DHT22;8371;52.272;9.746;2023-10-09T08:58:09;18.10;80.30
16517;DHT22;8371;52.272;9.746;2023-10-09T09:00:46;18.20;80.30
16517;DHT22;8371;52.272;9.746;2023-10-09T09:03:14;18.20;80.50
16517;DHT22;8371;52.272;9.746;2023-10-09T09:05:46;18.30;80.70
16517;DHT22;8371;52.272;9.746;2023-10-09T09:08:25;18.30;80.50
16517;DHT22;8371;52.272;9.746;2023-10-09T09:10:56;18.40;80.40
16517;DHT22;8371;52.272;9.746;2023-10-09T09:13:24;18.40;80.50
16517;DHT22;8371;52.272;9.746;2023-10-09T09:15:50;18.50;80.20
16517;DHT22;8371;52.272;9.746;2023-10-09T09:18:18;18.50;80.20
16517;DHT22;8371;52.272;9.746;2023-10-09T09:20:44;18.50;80.10
16517;DHT22;8371;52.272;9.746;2023-10-09T09:23:12;18.60;80.10
16517;DHT22;8371;52.272;9.746;2023-10-09T09:25:45;18.60;80.10
16517;DHT22;8371;52.272;9.746;2023-10-09T09:28:14;18.60;80.00
16517;DHT22;8371;52.272;9.746;2023-10-09T09:30:42;18.60;80.10
16517;DHT22;8371;52.272;9.746;2023-10-09T09:33:18;18.70;80.20
16517;DHT22;8371;52.272;9.746;2023-10-09T09:36:05;18.70;80.30
16517;DHT22;8371;52.272;9.746;2023-10-09T09:38:33;18.80;80.50
16517;DHT22;8371;52.272;9.746;2023-10-09T09:41:10;18.80;80.40
16517;DHT22;8371;52.272;9.746;2023-10-09T09:43:37;18.90;80.30
16517;DHT22;8371;52.272;9.746;2023-10-09T09:46:07;18.90;80.20
16517;DHT22;8371;52.272;9.746;2023-10-09T09:48:39;18.90;80.10
16517;DHT22;8371;52.272;9.746;2023-10-09T09:51:05;19.00;80.10
16517;DHT22;8371;52.272;9.746;2023-10-09T09:53:34;19.00;80.10
16517;DHT22;8371;52.272;9.746;2023-10-09T09:56:00;19.00;80.10
16517;DHT22;8371;52.272;9.746;2023-10-09T09:58:28;19.10;80.10
16517;DHT22;8371;52.272;9.746;2023-10-09T10:01:03;19.10;80.10
16517;DHT22;8371;52.272;9.746;2023-10-09T10:03:29;19.10;80.10
16517;DHT22;8371;52.272;9.746;2023-10-09T10:05:55;19.20;80.10
16517;DHT22;8371;52.272;9.746;2023-10-09T10:08:23;19.20;80.00
16517;DHT22;8371;52.272;9.746;2023-10-09T10:10:51;19.20;79.90
16517;DHT22;8371;52.272;9.746;2023-10-09T10:16:14;19.20;79.80
16517;DHT22;8371;52.272;9.746;2023-10-09T10:18:56;19.20;79.70
16517;DHT22;8371;52.272;9.746;2023-10-09T10:21:26;19.20;80.50
16517;DHT22;8371;52.272;9.746;2023-10-09T10:24:00;19.20;79.70
16517;DHT22;8371;52.272;9.746;2023-10-09T10:26:28;19.20;79.70
16517;DHT22;8371;52.272;9.746;2023-10-09T10:29:18;19.20;79.80
16517;DHT22;8371;52.272;9.746;2023-10-09T10:31:54;19.20;79.70
16517;DHT22;8371;52.272;9.746;2023-10-09T10:34:20;19.20;79.60
16517;DHT22;8371;52.272;9.746;2023-10-09T10:36:48;19.20;79.50
16517;DHT22;8371;52.272;9.746;2023-10-09T10:39:15;19.20;79.50
16517;DHT22;8371;52.272;9.746;2023-10-09T10:41:55;19.20;79.50
16517;DHT22;8371;52.272;9.746;2023-10-09T10:44:29;19.10;79.50
16517;DHT22;8371;52.272;9.746;2023-10-09T10:47:09;19.10;79.70
16517;DHT22;8371;52.272;9.746;2023-10-09T10:49:49;19.00;79.70
16517;DHT22;8371;52.272;9.746;2023-10-09T10:52:26;19.00;79.90
16517;DHT22;8371;52.272;9.746;2023-10-09T10:55:09;19.00;80.20
16517;DHT22;8371;52.272;9.746;2023-10-09T10:57:53;18.90;80.10
16517;DHT22;8371;52.272;9.746;2023-10-09T11:00:21;18.90;80.10
16517;DHT22;8371;52.272;9.746;2023-10-09T11:03:06;18.90;80.20
16517;DHT22;8371;52.272;9.746;2023-10-09T11:05:43;18.90;80.40
16517;DHT22;8371;52.272;9.746;2023-10-09T11:08:11;18.80;80.50
16517;DHT22;8371;52.272;9.746;2023-10-09T11:10:37;18.90;80.70
16517;DHT22;8371;52.272;9.746;2023-10-09T11:13:05;18.90;80.80
16517;DHT22;8371;52.272;9.746;2023-10-09T11:15:37;18.90;80.90
16517;DHT22;8371;52.272;9.746;2023-10-09T11:18:06;18.90;80.90
16517;DHT22;8371;52.272;9.746;2023-10-09T11:20:37;18.90;80.80
16517;DHT22;8371;52.272;9.746;2023-10-09T11:23:05;18.90;80.80
16517;DHT22;8371;52.272;9.746;2023-10-09T11:25:42;19.00;80.90
16517;DHT22;8371;52.272;9.746;2023-10-09T11:28:20;18.90;80.70
16517;DHT22;8371;52.272;9.746;2023-10-09T11:31:09;19.00;80.80
16517;DHT22;8371;52.272;9.746;2023-10-09T11:33:48;19.00;80.90
16517;DHT22;8371;52.272;9.746;2023-10-09T11:36:15;19.00;81.00
16517;DHT22;8371;52.272;9.746;2023-10-09T11:38:41;19.00;81.20
16517;DHT22;8371;52.272;9.746;2023-10-09T11:41:16;19.00;81.10
16517;DHT22;8371;52.272;9.746;2023-10-09T11:43:48;19.00;81.20
16517;DHT22;8371;52.272;9.746;2023-10-09T11:46:18;19.00;81.10
16517;DHT22;8371;52.272;9.746;2023-10-09T11:49:09;19.00;81.30
16517;DHT22;8371;52.272;9.746;2023-10-09T11:51:51;19.00;81.50
16517;DHT22;8371;52.272;9.746;2023-10-09T11:54:31;19.00;81.60
16517;DHT22;8371;52.272;9.746;2023-10-09T11:56:59;19.00;81.60
16517;DHT22;8371;52.272;9.746;2023-10-09T11:59:32;19.00;81.50
16517;DHT22;8371;52.272;9.746;2023-10-09T12:02:07;19.10;81.60
16517;DHT22;8371;52.272;9.746;2023-10-09T12:04:34;19.10;81.60
16517;DHT22;8371;52.272;9.746;2023-10-09T12:07:01;19.10;81.60
16517;DHT22;8371;52.272;9.746;2023-10-09T12:09:33;19.10;81.80
16517;DHT22;8371;52.272;9.746;2023-10-09T12:12:06;19.10;81.90
16517;DHT22;8371;52.272;9.746;2023-10-09T12:14:33;19.10;82.00
16517;DHT22;8371;52.272;9.746;2023-10-09T12:16:59;19.10;81.80
16517;DHT22;8371;52.272;9.746;2023-10-09T12:19:27;19.20;81.90
16517;DHT22;8371;52.272;9.746;2023-10-09T12:21:53;19.20;81.80
16517;DHT22;8371;52.272;9.746;2023-10-09T12:24:19;19.20;81.90
16517;DHT22;8371;52.272;9.746;2023-10-09T12:26:44;19.20;81.80
16517;DHT22;8371;52.272;9.746;2023-10-09T12:29:11;19.20;82.50
16517;DHT22;8371;52.272;9.746;2023-10-09T12:31:37;19.20;81.80
16517;DHT22;8371;52.272;9.746;2023-10-09T12:34:02;19.20;82.00
16517;DHT22;8371;52.272;9.746;2023-10-09T12:36:28;19.20;82.00
16517;DHT22;8371;52.272;9.746;2023-10-09T12:38:54;19.20;82.00
16517;DHT22;8371;52.272;9.746;2023-10-09T12:41:22;19.30;82.10
16517;DHT22;8371;52.272;9.746;2023-10-09T12:43:58;19.30;82.00
16517;DHT22;8371;52.272;9.746;2023-10-09T12:46:24;19.30;82.00
16517;DHT22;8371;52.272;9.746;2023-10-09T12:48:54;19.30;82.00
16517;DHT22;8371;52.272;9.746;2023-10-09T12:51:21;19.30;82.10
16517;DHT22;8371;52.272;9.746;2023-10-09T12:53:49;19.20;82.00
16517;DHT22;8371;52.272;9.746;2023-10-09T12:56:16;19.30;82.20
16517;DHT22;8371;52.272;9.746;2023-10-09T12:58:43;19.20;82.20
16517;DHT22;8371;52.272;9.746;2023-10-09T13:01:18;19.30;82.30
16517;DHT22;8371;52.272;9.746;2023-10-09T13:03:46;19.30;82.40
16517;DHT22;8371;52.272;9.746;2023-10-09T13:06:15;19.30;83.50
16517;DHT22;8371;52.272;9.746;2023-10-09T13:08:43;19.30;82.90
16517;DHT22;8371;52.272;9.746;2023-10-09T13:11:11;19.40;83.00
16517;DHT22;8371;52.272;9.746;2023-10-09T13:13:38;19.40;83.00
16517;DHT22;8371;52.272;9.746;2023-10-09T13:16:14;19.40;83.30
16517;DHT22;8371;52.272;9.746;2023-10-09T13:18:42;19.50;83.40
16517;DHT22;8371;52.272;9.746;2023-10-09T13:21:12;19.60;83.60
16517;DHT22;8371;52.272;9.746;2023-10-09T13:23:38;19.60;83.50
16517;DHT22;8371;52.272;9.746;2023-10-09T13:26:06;19.70;83.40
16517;DHT22;8371;52.272;9.746;2023-10-09T13:28:33;19.80;83.40
16517;DHT22;8371;52.272;9.746;2023-10-09T13:31:01;19.80;83.30
16517;DHT22;8371;52.272;9.746;2023-10-09T13:33:29;19.90;83.20
16517;DHT22;8371;52.272;9.746;2023-10-09T13:35:56;19.90;83.20
16517;DHT22;8371;52.272;9.746;2023-10-09T13:38:22;19.90;83.10
16517;DHT22;8371;52.272;9.746;2023-10-09T13:40:48;19.90;83.00
16517;DHT22;8371;52.272;9.746;2023-10-09T13:43:14;20.00;83.00
16517;DHT22;8371;52.272;9.746;2023-10-09T13:45:42;20.00;82.90
16517;DHT22;8371;52.272;9.746;2023-10-09T13:48:09;20.00;82.90
16517;DHT22;8371;52.272;9.746;2023-10-09T13:50:37;20.00;82.90
16517;DHT22;8371;52.272;9.746;2023-10-09T13:53:04;20.10;83.30
16517;DHT22;8371;52.272;9.746;2023-10-09T13:55:36;20.10;83.50
16517;DHT22;8371;52.272;9.746;2023-10-09T13:58:03;20.20;84.40
16517;DHT22;8371;52.272;9.746;2023-10-09T14:00:31;20.30;83.60
16517;DHT22;8371;52.272;9.746;2023-10-09T14:03:02;20.30;83.50
16517;DHT22;8371;52.272;9.746;2023-10-09T14:05:33;20.40;83.40
16517;DHT22;8371;52.272;9.746;2023-10-09T14:07:59;20.40;83.10
16517;DHT22;8371;52.272;9.746;2023-10-09T14:10:26;20.50;83.00
16517;DHT22;8371;52.272;9.746;2023-10-09T14:12:54;20.50;82.80
16517;DHT22;8371;52.272;9.746;2023-10-09T14:15:21;20.50;82.60
16517;DHT22;8371;52.272;9.746;2023-10-09T14:17:46;20.60;82.70
16517;DHT22;8371;52.272;9.746;2023-10-09T14:20:12;20.60;82.50
16517;DHT22;8371;52.272;9.746;2023-10-09T14:22:59;20.60;82.50
16517;DHT22;8371;52.272;9.746;2023-10-09T14:25:28;20.60;82.40
16517;DHT22;8371;52.272;9.746;2023-10-09T14:27:55;20.60;82.40
16517;DHT22;8371;52.272;9.746;2023-10-09T14:30:21;20.60;82.40
16517;DHT22;8371;52.272;9.746;2023-10-09T14:32:51;20.60;82.30
16517;DHT22;8371;52.272;9.746;2023-10-09T14:35:19;20.60;82.30
16517;DHT22;8371;52.272;9.746;2023-10-09T14:37:46;20.60;82.30
16517;DHT22;8371;52.272;9.746;2023-10-09T14:40:12;20.70;82.40
16517;DHT22;8371;52.272;9.746;2023-10-09T14:42:39;20.60;82.30
16517;DHT22;8371;52.272;9.746;2023-10-09T14:45:07;20.60;82.30
16517;DHT22;8371;52.272;9.746;2023-10-09T14:47:34;20.70;82.20
16517;DHT22;8371;52.272;9.746;2023-10-09T14:50:05;20.60;82.00
16517;DHT22;8371;52.272;9.746;2023-10-09T14:52:32;20.60;82.70
16517;DHT22;8371;52.272;9.746;2023-10-09T14:54:58;20.60;82.00
16517;DHT22;8371;52.272;9.746;2023-10-09T14:57:26;20.60;82.10
16517;DHT22;8371;52.272;9.746;2023-10-09T14:59:52;20.60;82.20
16517;DHT22;8371;52.272;9.746;2023-10-09T15:02:19;20.60;82.90
16517;DHT22;8371;52.272;9.746;2023-10-09T15:04:44;20.60;82.30
16517;DHT22;8371;52.272;9.746;2023-10-09T15:07:10;20.60;82.20
16517;DHT22;8371;52.272;9.746;2023-10-09T15:09:37;20.60;82.20
16517;DHT22;8371;52.272;9.746;2023-10-09T15:12:05;20.60;82.20
16517;DHT22;8371;52.272;9.746;2023-10-09T15:14:32;20.60;82.20
16517;DHT22;8371;52.272;9.746;2023-10-09T15:16:59;20.50;82.00
16517;DHT22;8371;52.272;9.746;2023-10-09T15:19:24;20.50;82.20
16517;DHT22;8371;52.272;9.746;2023-10-09T15:21:52;20.50;82.30
16517;DHT22;8371;52.272;9.746;2023-10-09T15:24:18;20.50;82.30
16517;DHT22;8371;52.272;9.746;2023-10-09T15:26:48;20.40;82.20
16517;DHT22;8371;52.272;9.746;2023-10-09T15:29:24;20.40;82.30
16517;DHT22;8371;52.272;9.746;2023-10-09T15:31:55;20.40;82.40
16517;DHT22;8371;52.272;9.746;2023-10-09T15:34:21;20.40;82.50
16517;DHT22;8371;52.272;9.746;2023-10-09T15:36:47;20.30;82.60
16517;DHT22;8371;52.272;9.746;2023-10-09T15:39:13;20.30;82.60
16517;DHT22;8371;52.272;9.746;2023-10-09T15:41:39;20.30;82.50
16517;DHT22;8371;52.272;9.746;2023-10-09T15:44:05;20.30;82.60
16517;DHT22;8371;52.272;9.746;2023-10-09T15:46:32;20.30;82.50
16517;DHT22;8371;52.272;9.746;2023-10-09T15:49:01;20.20;82.60
16517;DHT22;8371;52.272;9.746;2023-10-09T15:51:28;20.20;82.70
16517;DHT22;8371;52.272;9.746;2023-10-09T15:53:55;20.20;82.70
16517;DHT22;8371;52.272;9.746;2023-10-09T15:56:22;20.20;82.80
16517;DHT22;8371;52.272;9.746;2023-10-09T15:58:48;20.10;82.80
16517;DHT22;8371;52.272;9.746;2023-10-09T16:01:15;20.10;82.90
16517;DHT22;8371;52.272;9.746;2023-10-09T16:03:44;20.10;82.90
16517;DHT22;8371;52.272;9.746;2023-10-09T16:06:12;20.10;83.00
16517;DHT22;8371;52.272;9.746;2023-10-09T16:08:39;20.10;83.00
16517;DHT22;8371;52.272;9.746;2023-10-09T16:11:05;20.10;83.10
16517;DHT22;8371;52.272;9.746;2023-10-09T16:13:33;20.10;83.20